Time;durP1;ratioP1;P1;durP2;ratioP2;P2;SDS_P1;SDS_P2;PMS_P1;PMS_P2;Temp;Humidity;BMP_temperature;BMP_pressure;BME280_temperature;BME280_humidity;BME280_pressure;Samples;Min_cycle;Max_cycle;Signal;HPM_P1;HPM_P2
2021/06/22 00:01:50;;;;;;;11.90;8.43;;;;;;;15.37;70.17;100906.94;5041415;28;20184;-71
2021/06/22 00:04:16;;;;;;;11.20;8.83;;;;;;;15.60;69.77;100905.84;5040932;28;20193;-71
2021/06/22 00:06:41;;;;;;;10.07;9.10;;;;;;;15.76;69.17;100907.50;5050138;28;20181;-72
2021/06/22 00:09:06;;;;;;;19.37;8.87;;;;;;;15.41;70.04;100908.66;5061233;28;20165;-71
2021/06/22 00:11:32;;;;;;;12.77;8.40;;;;;;;15.74;69.26;100897.88;5060835;28;20428;-71
2021/06/22 00:13:58;;;;;;;11.10;8.20;;;;;;;15.57;69.57;100892.75;5060755;28;20239;-71
2021/06/22 00:16:24;;;;;;;11.60;8.43;;;;;;;15.71;69.09;100896.13;5053521;28;20445;-71
2021/06/22 00:18:50;;;;;;;15.77;8.57;;;;;;;15.53;70.37;100906.81;5040658;28;20450;-70
2021/06/22 00:21:15;;;;;;;9.03;7.40;;;;;;;15.25;70.85;100914.88;5040689;28;20474;-71
2021/06/22 00:23:40;;;;;;;14.60;8.77;;;;;;;15.34;72.05;100927.94;5040746;28;20166;-70
2021/06/22 00:26:06;;;;;;;11.63;8.50;;;;;;;15.37;71.25;100932.31;5040656;28;20213;-70
2021/06/22 00:28:31;;;;;;;16.30;8.83;;;;;;;15.12;71.39;100943.84;5041461;28;20186;-70
2021/06/22 00:30:56;;;;;;;10.90;7.77;;;;;;;15.57;71.07;100943.53;5044735;28;20495;-70
2021/06/22 00:33:21;;;;;;;13.53;8.57;;;;;;;15.36;71.50;100960.34;5040253;28;20607;-70
2021/06/22 00:35:47;;;;;;;11.63;8.40;;;;;;;15.27;72.22;100958.63;5040132;28;20226;-70
2021/06/22 00:38:12;;;;;;;10.20;8.13;;;;;;;15.57;69.83;100945.31;5040442;28;20571;-71
2021/06/22 00:40:37;;;;;;;15.97;8.70;;;;;;;15.46;70.88;100942.75;5040354;28;20193;-70
2021/06/22 00:43:03;;;;;;;11.17;8.17;;;;;;;15.78;70.64;100949.53;5039984;28;20178;-72
2021/06/22 00:45:32;;;;;;;16.60;9.23;;;;;;;15.45;71.40;100968.19;5040404;28;20181;-71
2021/06/22 00:47:58;;;;;;;13.97;8.80;;;;;;;15.41;71.59;100979.59;5039797;28;20276;-69
2021/06/22 00:50:23;;;;;;;13.20;9.20;;;;;;;15.06;72.01;100982.41;5039900;28;20423;-70
2021/06/22 00:52:49;;;;;;;14.47;8.37;;;;;;;15.40;71.16;100976.97;5040026;28;20540;-70
2021/06/22 00:55:28;;;;;;;13.60;8.67;;;;;;;15.52;70.67;100970.75;5048792;28;20268;-70
2021/06/22 00:57:56;;;;;;;11.60;8.00;;;;;;;15.28;71.12;100965.66;5059613;28;20212;-70
2021/06/22 01:00:21;;;;;;;13.83;8.33;;;;;;;15.25;71.41;100970.03;5059161;28;20387;-70
2021/06/22 01:02:47;;;;;;;11.93;8.37;;;;;;;15.46;71.51;100958.53;5059697;28;20684;-71
2021/06/22 01:05:13;;;;;;;13.07;9.40;;;;;;;15.86;69.87;100957.34;5059490;28;20563;-70
2021/06/22 01:07:38;;;;;;;11.53;8.70;;;;;;;15.65;70.99;100964.50;5059667;28;20438;-70
2021/06/22 01:10:04;;;;;;;13.47;8.40;;;;;;;15.76;70.75;100965.31;5059713;28;20265;-70
2021/06/22 01:12:29;;;;;;;14.40;8.83;;;;;;;15.03;72.78;100975.41;5059866;28;20213;-71
2021/06/22 01:14:54;;;;;;;13.40;9.17;;;;;;;15.75;71.25;100970.56;5059704;28;20196;-71
2021/06/22 01:17:20;;;;;;;13.17;8.20;;;;;;;15.17;72.02;100964.84;5059418;28;20180;-71
2021/06/22 01:19:45;;;;;;;12.90;9.20;;;;;;;15.47;71.41;100955.03;5058245;28;20178;-71
2021/06/22 01:22:11;;;;;;;10.70;8.70;;;;;;;15.27;71.57;100963.88;5059323;28;20224;-71
2021/06/22 01:24:37;;;;;;;12.90;8.40;;;;;;;15.13;72.38;100966.59;5059519;28;20581;-71
2021/06/22 01:27:03;;;;;;;13.73;8.90;;;;;;;15.26;73.00;100961.28;5059654;28;20158;-71
2021/06/22 01:29:29;;;;;;;13.40;8.30;;;;;;;14.65;74.09;100968.56;5051488;28;20830;-70
2021/06/22 01:31:55;;;;;;;11.50;7.57;;;;;;;14.91;73.50;100954.47;5039213;28;20185;-70
2021/06/22 01:34:25;;;;;;;10.70;8.10;;;;;;;15.21;72.32;100961.31;5038961;28;20416;-71
2021/06/22 01:36:50;;;;;;;10.80;7.97;;;;;;;15.25;71.85;100955.16;5038889;28;20491;-70
2021/06/22 01:39:16;;;;;;;15.87;8.80;;;;;;;15.51;71.30;100950.63;5039347;28;20714;-70
2021/06/22 01:41:42;;;;;;;15.37;8.90;;;;;;;15.71;70.87;100948.72;5039285;28;20193;-71
2021/06/22 01:44:08;;;;;;;10.93;8.50;;;;;;;15.52;70.55;100937.47;5039026;28;20179;-70
2021/06/22 01:46:33;;;;;;;10.97;7.90;;;;;;;15.46;71.04;100940.13;5039079;28;20216;-70
2021/06/22 01:48:58;;;;;;;9.40;8.10;;;;;;;15.49;70.68;100933.09;5042199;28;20512;-70
2021/06/22 01:51:24;;;;;;;15.33;9.43;;;;;;;15.55;70.65;100939.22;5058890;28;20181;-70
2021/06/22 01:53:53;;;;;;;15.23;9.03;;;;;;;15.73;69.94;100946.06;5058749;28;20173;-69
2021/06/22 01:56:19;;;;;;;18.53;8.73;;;;;;;15.78;69.96;100953.03;5059141;28;20174;-70
2021/06/22 01:58:44;;;;;;;14.43;8.10;;;;;;;15.58;71.34;100954.94;5057907;28;20715;-70
2021/06/22 02:01:09;;;;;;;15.87;8.80;;;;;;;15.10;71.59;100965.75;5057425;28;20451;-70
2021/06/22 02:03:35;;;;;;;13.60;9.00;;;;;;;15.47;71.60;100976.91;5058833;28;20170;-70
2021/06/22 02:06:00;;;;;;;9.63;7.87;;;;;;;15.17;71.39;100985.84;5058484;28;20184;-70
2021/06/22 02:08:25;;;;;;;11.10;8.07;;;;;;;15.41;72.11;100997.97;5058438;28;20202;-72
2021/06/22 02:10:50;;;;;;;16.10;8.30;;;;;;;15.12;71.92;101004.25;5057445;28;20223;-70
2021/06/22 02:13:16;;;;;;;11.00;7.33;;;;;;;15.31;71.64;101007.66;5058558;28;20264;-69
2021/06/22 02:15:42;;;;;;;11.83;8.40;;;;;;;15.36;70.88;101006.75;5058520;28;20185;-69
2021/06/22 02:18:08;;;;;;;13.50;8.20;;;;;;;15.52;69.78;101011.03;5058789;28;20590;-69
2021/06/22 02:20:35;;;;;;;14.17;8.70;;;;;;;15.62;70.55;101020.59;5043176;28;20439;-70
2021/06/22 02:23:00;;;;;;;11.43;7.77;;;;;;;15.63;69.83;101022.34;5038453;28;20409;-70
2021/06/22 02:25:26;;;;;;;10.40;8.30;;;;;;;15.50;70.57;101018.06;5038963;28;20718;-70
2021/06/22 02:28:03;;;;;;;10.77;7.50;;;;;;;15.39;70.49;101019.88;5038670;28;20512;-69
2021/06/22 02:30:28;;;;;;;13.30;8.00;;;;;;;15.46;70.21;101017.19;5052714;28;20268;-70
2021/06/22 02:32:53;;;;;;;11.83;8.30;;;;;;;15.75;69.62;101010.88;5058580;28;20739;-69
2021/06/22 02:35:19;;;;;;;16.83;8.00;;;;;;;15.61;70.15;101016.25;5058027;28;20629;-69
2021/06/22 02:37:44;;;;;;;14.97;8.17;;;;;;;15.58;69.96;101002.25;5057836;28;20237;-69
2021/06/22 02:40:11;;;;;;;13.00;8.00;;;;;;;15.78;69.14;100999.47;5057904;28;20183;-70
2021/06/22 02:42:37;;;;;;;9.57;7.73;;;;;;;15.85;68.78;101006.44;5057977;28;20173;-71
2021/06/22 02:45:03;;;;;;;12.47;7.80;;;;;;;15.80;68.51;101005.59;5057972;28;20419;-71
2021/06/22 02:47:28;;;;;;;15.30;9.00;;;;;;;16.05;67.70;101014.19;5057288;28;20238;-71
2021/06/22 02:49:54;;;;;;;43.47;32.37;;;;;;;15.68;68.43;101006.53;5057363;28;20448;-71
2021/06/22 02:52:19;;;;;;;14.40;10.47;;;;;;;16.00;67.73;101005.44;5057723;28;20193;-71
2021/06/22 02:54:44;;;;;;;11.83;7.80;;;;;;;16.12;67.05;100996.59;5058464;28;20412;-70
2021/06/22 02:57:11;;;;;;;15.80;7.87;;;;;;;15.83;68.33;100992.47;5057755;28;20248;-69
2021/06/22 02:59:37;;;;;;;15.93;8.30;;;;;;;15.97;67.95;100992.34;5048737;28;20212;-71
2021/06/22 03:02:03;;;;;;;10.83;7.93;;;;;;;15.92;67.96;100999.38;5050037;28;20395;-70
2021/06/22 03:04:29;;;;;;;14.27;9.43;;;;;;;15.94;68.03;100992.34;5057763;28;20473;-70
2021/06/22 03:06:54;;;;;;;8.73;7.63;;;;;;;15.97;67.21;100994.97;5038646;28;20520;-71
2021/06/22 03:09:19;;;;;;;14.53;8.43;;;;;;;15.96;67.71;100986.19;5038301;28;20213;-71
2021/06/22 03:11:45;;;;;;;16.63;8.60;;;;;;;15.79;67.55;100982.78;5037462;28;20221;-71
2021/06/22 03:14:10;;;;;;;24.60;8.60;;;;;;;15.87;67.77;100985.41;5037597;28;20185;-71
2021/06/22 03:16:36;;;;;;;11.37;7.20;;;;;;;16.25;66.56;100987.69;5037952;28;20176;-70
2021/06/22 03:19:01;;;;;;;9.63;7.43;;;;;;;16.11;66.88;100994.84;5039255;28;20248;-70
2021/06/22 03:21:26;;;;;;;10.27;7.63;;;;;;;16.07;66.53;101012.38;5056752;28;20181;-68
2021/06/22 03:23:52;;;;;;;13.30;9.47;;;;;;;16.00;68.30;101034.38;5057752;28;20219;-70
2021/06/22 03:26:17;;;;;;;10.73;7.70;;;;;;;16.13;68.05;101033.38;5056698;28;20188;-70
2021/06/22 03:28:42;;;;;;;9.40;7.63;;;;;;;15.96;68.06;101040.53;5057491;28;20174;-70
2021/06/22 03:31:08;;;;;;;11.03;7.47;;;;;;;16.00;66.91;101043.13;5057104;28;20185;-70
2021/06/22 03:33:33;;;;;;;14.47;8.50;;;;;;;15.98;66.75;101041.41;5057351;28;20174;-71
2021/06/22 03:35:58;;;;;;;12.20;7.67;;;;;;;15.91;68.70;101060.75;5057218;28;20253;-71
2021/06/22 03:38:24;;;;;;;10.60;6.90;;;;;;;16.12;67.53;101057.94;5057900;28;20205;-71
2021/06/22 03:40:49;;;;;;;14.60;7.20;;;;;;;15.87;68.02;101072.16;5056856;28;20193;-71
2021/06/22 03:43:15;;;;;;;10.07;7.20;;;;;;;15.60;68.94;101077.56;5057419;28;20209;-71
2021/06/22 03:45:40;;;;;;;10.60;7.53;;;;;;;16.07;67.85;101087.81;5057747;28;20185;-71
2021/06/22 03:48:07;;;;;;;10.50;7.30;;;;;;;16.03;67.63;101099.22;5057325;28;20595;-70
2021/06/22 03:50:32;;;;;;;17.60;7.87;;;;;;;16.04;67.86;101117.63;5056761;28;20443;-70
2021/06/22 03:52:58;;;;;;;11.50;6.97;;;;;;;16.02;66.89;101115.88;5057906;28;20383;-70
2021/06/22 03:55:26;;;;;;;12.80;6.87;;;;;;;16.07;66.05;101100.94;5054562;28;20184;-71
2021/06/22 03:57:54;;;;;;;9.97;6.43;;;;;;;15.95;66.92;101079.13;5037777;28;20202;-70
2021/06/22 04:00:20;;;;;;;11.90;7.50;;;;;;;16.26;66.83;101057.81;5041946;28;20530;-70
2021/06/22 04:02:46;;;;;;;10.80;6.80;;;;;;;16.20;67.49;101057.03;5060431;28;20534;-70
2021/06/22 04:05:11;;;;;;;12.23;6.90;;;;;;;16.20;66.95;101047.38;5058798;28;22143;-70
2021/06/22 04:07:37;;;;;;;10.83;7.30;;;;;;;15.95;67.71;101031.78;5043224;28;20186;-71
2021/06/22 04:10:02;;;;;;;10.93;7.00;;;;;;;16.23;66.82;101031.53;5050181;28;20177;-70
2021/06/22 04:12:28;;;;;;;9.53;6.30;;;;;;;16.40;66.69;101028.75;5056601;28;20242;-71
2021/06/22 04:14:53;;;;;;;12.27;7.33;;;;;;;16.48;66.04;101029.56;5061405;28;20178;-70
2021/06/22 04:17:18;;;;;;;12.73;9.03;;;;;;;15.85;68.04;101038.00;5041911;28;20500;-70
2021/06/22 04:19:44;;;;;;;12.33;7.47;;;;;;;16.41;66.29;101048.94;5047262;28;20266;-71
2021/06/22 04:22:09;;;;;;;9.50;6.27;;;;;;;16.24;65.88;101051.72;5059235;28;20170;-71
2021/06/22 04:24:34;;;;;;;11.30;6.67;;;;;;;16.04;67.19;101059.75;5043544;28;20208;-71
2021/06/22 04:26:59;;;;;;;12.37;6.73;;;;;;;16.42;65.79;101055.06;5054285;28;20185;-71
2021/06/22 04:29:25;;;;;;;11.90;7.10;;;;;;;16.29;66.79;101049.91;5060214;28;20170;-71
2021/06/22 04:31:50;;;;;;;10.07;6.77;;;;;;;16.54;65.85;101043.56;5047392;28;20193;-71
2021/06/22 04:34:16;;;;;;;12.17;7.10;;;;;;;16.72;64.35;101045.09;5058265;28;20634;-71
2021/06/22 04:36:42;;;;;;;9.23;7.23;;;;;;;16.63;64.80;101044.31;5047200;28;20222;-71
2021/06/22 04:39:07;;;;;;;11.37;6.57;;;;;;;16.65;64.44;101044.28;5058374;28;20850;-71
2021/06/22 04:41:33;;;;;;;11.40;7.00;;;;;;;16.40;65.08;101043.66;5044247;28;20272;-70
2021/06/22 04:43:58;;;;;;;14.27;6.77;;;;;;;16.58;63.92;101043.47;5039981;28;20204;-71
2021/06/22 04:46:23;;;;;;;13.73;6.70;;;;;;;16.49;63.57;101044.47;5040127;28;20178;-71
2021/06/22 04:48:49;;;;;;;9.20;6.13;;;;;;;16.61;64.98;101045.22;5040559;28;20170;-69
2021/06/22 04:51:14;;;;;;;10.83;6.37;;;;;;;16.39;64.05;101048.06;5040277;28;20193;-70
2021/06/22 04:53:40;;;;;;;10.00;6.20;;;;;;;16.23;65.05;101042.06;5046583;28;20569;-72
2021/06/22 04:56:05;;;;;;;10.30;6.30;;;;;;;16.70;63.34;101042.50;5060530;28;20193;-71
2021/06/22 04:58:31;;;;;;;8.80;6.20;;;;;;;16.88;62.34;101048.44;5046147;28;20296;-71
2021/06/22 05:01:00;;;;;;;13.03;6.07;;;;;;;16.58;63.17;101050.53;5044812;28;20601;-69
2021/06/22 05:03:26;;;;;;;9.77;5.90;;;;;;;16.95;62.11;101050.13;5042375;28;20190;-70
2021/06/22 05:05:51;;;;;;;9.10;5.90;;;;;;;16.86;61.82;101051.09;5038906;28;20407;-70
2021/06/22 05:08:16;;;;;;;10.77;6.10;;;;;;;17.23;60.48;101047.16;5039636;28;20209;-70
2021/06/22 05:10:42;;;;;;;8.93;5.90;;;;;;;17.20;60.85;101042.81;5045054;28;20578;-69
2021/06/22 05:13:07;;;;;;;10.30;6.60;;;;;;;17.41;59.73;101043.41;5057747;28;20192;-69
2021/06/22 05:15:32;;;;;;;7.80;6.30;;;;;;;18.05;58.31;101041.59;5045974;28;20224;-69
2021/06/22 05:17:57;;;;;;;8.90;6.03;;;;;;;18.95;55.28;101054.03;5041453;28;20285;-67
2021/06/22 05:20:23;;;;;;;11.53;6.97;;;;;;;20.16;52.45;101052.25;5053560;28;20195;-66
2021/06/22 05:22:48;;;;;;;10.83;4.87;;;;;;;19.26;53.48;101064.00;5058925;28;20458;-67
2021/06/22 05:25:14;;;;;;;7.40;5.90;;;;;;;21.05;49.15;101057.84;5059514;28;20348;-70
2021/06/22 05:27:39;;;;;;;7.33;4.90;;;;;;;19.79;52.02;101074.25;5051462;28;20269;-70
2021/06/22 05:30:05;;;;;;;8.20;4.97;;;;;;;20.42;50.29;101074.53;5039292;28;20472;-70
2021/06/22 05:32:31;;;;;;;7.47;4.77;;;;;;;20.53;49.62;101068.94;5039378;28;20170;-68
2021/06/22 05:34:56;;;;;;;7.07;4.60;;;;;;;20.26;50.66;101078.50;5055624;28;20493;-69
2021/06/22 05:37:23;;;;;;;8.20;4.87;;;;;;;21.56;46.41;101080.25;5053348;28;20420;-69
2021/06/22 05:39:49;;;;;;;6.23;4.60;;;;;;;23.41;42.96;101078.34;5041105;28;20193;-69
2021/06/22 05:42:15;;;;;;;11.00;5.17;;;;;;;23.13;42.96;101080.25;5038669;28;20409;-71
2021/06/22 05:44:40;;;;;;;10.80;4.60;;;;;;;22.74;42.17;101072.78;5038964;28;20203;-69
2021/06/22 05:47:05;;;;;;;7.53;4.63;;;;;;;22.76;43.57;101072.72;5039187;28;20459;-70
2021/06/22 05:49:31;;;;;;;10.93;5.87;;;;;;;22.36;44.42;101072.34;5046484;28;20517;-69
2021/06/22 05:51:56;;;;;;;7.67;4.80;;;;;;;20.85;47.99;101078.69;5058600;28;20230;-68
2021/06/22 05:54:21;;;;;;;13.73;5.47;;;;;;;19.65;51.24;101100.19;5049722;28;20501;-68
2021/06/22 05:56:47;;;;;;;13.47;5.10;;;;;;;19.88;50.45;101106.72;5038703;28;20178;-71
2021/06/22 05:59:12;;;;;;;9.43;4.90;;;;;;;19.67;51.66;101107.19;5038636;28;20473;-69
2021/06/22 06:01:38;;;;;;;9.63;5.10;;;;;;;19.60;50.61;101100.25;5038916;28;20186;-69
2021/06/22 06:04:04;;;;;;;8.10;4.70;;;;;;;20.13;50.12;101097.31;5038418;28;20194;-69
2021/06/22 06:06:29;;;;;;;6.40;5.03;;;;;;;19.77;50.17;101091.06;5038578;28;20490;-69
2021/06/22 06:08:54;;;;;;;7.40;4.63;;;;;;;20.05;50.74;101101.06;5038617;28;20222;-69
2021/06/22 06:11:20;;;;;;;5.60;4.37;;;;;;;20.44;49.23;101096.53;5038370;28;20548;-70
2021/06/22 06:13:45;;;;;;;11.30;5.80;;;;;;;20.94;47.05;101104.06;5038079;28;20186;-68
2021/06/22 06:16:10;;;;;;;9.03;5.17;;;;;;;20.00;49.73;101103.81;5038759;28;20232;-68
2021/06/22 06:18:36;;;;;;;10.93;5.30;;;;;;;20.71;47.50;101096.75;5058531;28;20221;-68
2021/06/22 06:21:01;;;;;;;9.00;7.07;;;;;;;22.27;44.43;101104.50;5072616;28;20181;-68
2021/06/22 06:23:31;;;;;;;10.37;4.90;;;;;;;22.23;43.55;101098.44;5070034;28;20189;-68
2021/06/22 06:25:56;;;;;;;10.03;5.97;;;;;;;22.61;42.85;101095.41;5054609;28;20188;-68
2021/06/22 06:28:26;;;;;;;9.03;5.10;;;;;;;21.95;44.12;101096.69;5058504;28;20446;-67
2021/06/22 06:30:52;;;;;;;11.10;7.30;;;;;;;21.53;44.90;101090.00;5055840;28;20209;-68
2021/06/22 06:33:17;;;;;;;9.17;5.20;;;;;;;22.03;43.82;101102.59;5048429;28;20505;-67
2021/06/22 06:35:42;;;;;;;8.60;5.20;;;;;;;22.52;42.85;101100.13;5041713;28;20515;-67
2021/06/22 06:38:08;;;;;;;8.27;4.80;;;;;;;23.02;40.77;101101.91;5044112;28;20248;-71
2021/06/22 06:40:35;;;;;;;11.17;4.70;;;;;;;22.34;42.22;101098.97;5042268;28;20551;-67
2021/06/22 06:43:01;;;;;;;10.33;5.00;;;;;;;23.09;41.08;101104.34;5041022;28;20220;-66
2021/06/22 06:45:26;;;;;;;6.80;4.57;;;;;;;23.67;37.58;101102.13;5039281;28;20733;-68
2021/06/22 06:47:52;;;;;;;7.60;4.70;;;;;;;24.76;36.56;101111.94;5045248;28;20193;-68
2021/06/22 06:50:17;;;;;;;9.30;6.40;;;;;;;25.44;35.27;101108.88;5047095;28;20555;-68
2021/06/22 06:52:43;;;;;;;8.23;5.60;;;;;;;25.98;34.65;101110.75;5050602;28;20260;-68
2021/06/22 06:57:57;;;;;;;6.90;4.50;;;;;;;24.51;36.45;101126.25;5037510;28;20288;-68
2021/06/22 07:00:23;;;;;;;7.77;4.80;;;;;;;23.92;37.59;101141.13;5039206;28;20440;-67
2021/06/22 07:02:49;;;;;;;7.63;5.00;;;;;;;23.78;38.20;101146.97;5055714;28;20786;-68
2021/06/22 07:05:14;;;;;;;7.83;5.20;;;;;;;24.93;36.83;101139.66;5057273;28;20438;-68
2021/06/22 07:07:39;;;;;;;6.63;4.23;;;;;;;26.25;33.03;101135.31;5053148;28;20181;-68
2021/06/22 07:10:05;;;;;;;7.87;4.80;;;;;;;26.63;32.21;101129.81;5063411;28;20239;-67
2021/06/22 07:12:31;;;;;;;6.40;3.83;;;;;;;26.73;32.23;101131.06;5057467;28;20181;-68
2021/06/22 07:14:56;;;;;;;9.63;4.50;;;;;;;26.03;33.61;101123.00;5047208;28;20186;-66
2021/06/22 07:17:21;;;;;;;7.33;4.83;;;;;;;25.98;32.96;101127.66;5036546;28;20197;-67
2021/06/22 07:19:46;;;;;;;5.63;4.10;;;;;;;26.59;31.64;101130.91;5049356;28;20270;-68
2021/06/22 07:22:12;;;;;;;8.20;4.30;;;;;;;24.32;36.15;101141.31;5036926;28;20174;-68
2021/06/22 07:24:37;;;;;;;7.00;4.67;;;;;;;25.07;35.16;101145.22;5045879;28;20562;-67
2021/06/22 07:27:03;;;;;;;4.93;3.97;;;;;;;26.05;33.58;101145.16;5072037;28;20184;-66
2021/06/22 07:29:28;;;;;;;7.40;4.07;;;;;;;25.34;34.68;101148.50;5057075;28;20208;-67
2021/06/22 07:31:53;;;;;;;6.93;4.33;;;;;;;24.98;35.83;101140.31;5043204;28;20190;-68
2021/06/22 07:34:19;;;;;;;6.20;4.50;;;;;;;23.53;37.94;101139.09;5046312;28;20216;-67
2021/06/22 07:36:45;;;;;;;6.40;4.50;;;;;;;23.50;38.68;101148.06;5058142;28;20232;-65
2021/06/22 07:39:10;;;;;;;9.80;4.90;;;;;;;22.01;41.39;101164.63;5060606;28;20571;-65
2021/06/22 07:41:36;;;;;;;14.23;5.13;;;;;;;21.96;41.99;101154.16;5047303;28;20257;-66
2021/06/22 07:44:01;;;;;;;7.60;4.37;;;;;;;21.96;42.43;101156.81;5049401;28;20282;-65
2021/06/22 07:46:26;;;;;;;8.27;4.70;;;;;;;21.40;43.15;101165.53;5059881;28;20314;-65
2021/06/22 07:48:52;;;;;;;6.67;4.57;;;;;;;21.66;41.98;101164.81;5060713;28;20218;-65
2021/06/22 07:51:17;;;;;;;6.63;4.83;;;;;;;21.83;42.03;101166.94;5061004;28;20593;-65
2021/06/22 07:53:43;;;;;;;8.23;4.97;;;;;;;23.27;38.31;101148.03;5042533;28;20272;-64
2021/06/22 07:56:08;;;;;;;8.57;4.83;;;;;;;22.79;38.42;101149.72;5043963;28;20220;-65
2021/06/22 07:58:33;;;;;;;6.40;4.60;;;;;;;22.47;39.26;101167.63;5040791;28;20201;-65
2021/06/22 08:00:59;;;;;;;7.63;5.23;;;;;;;21.06;42.76;101169.13;5040428;28;20190;-64
2021/06/22 08:03:27;;;;;;;9.00;4.50;;;;;;;21.14;43.19;101167.13;5042563;28;20182;-65
2021/06/22 08:05:52;;;;;;;8.50;5.30;;;;;;;21.98;42.07;101172.69;5041144;28;20205;-65
2021/06/22 08:08:19;;;;;;;9.37;5.30;;;;;;;21.52;42.78;101174.91;5060489;28;20423;-65
2021/06/22 08:10:46;;;;;;;8.40;5.17;;;;;;;20.97;44.33;101174.69;5060847;28;20484;-65
2021/06/22 08:13:12;;;;;;;9.60;4.63;;;;;;;20.39;45.41;101177.91;5055508;28;20427;-66
2021/06/22 08:15:38;;;;;;;9.13;6.70;;;;;;;20.08;46.06;101169.78;5040654;28;20442;-66
2021/06/22 08:18:05;;;;;;;9.10;4.80;;;;;;;19.79;46.85;101174.78;5051199;28;20205;-66
2021/06/22 08:20:30;;;;;;;9.57;5.20;;;;;;;19.46;46.94;101179.91;5060230;28;20691;-66
2021/06/22 08:22:56;;;;;;;7.20;5.40;;;;;;;19.97;46.69;101191.19;5056839;28;20570;-66
2021/06/22 08:25:23;;;;;;;13.10;5.57;;;;;;;20.09;45.89;101180.31;5064190;28;20189;-66
2021/06/22 08:27:49;;;;;;;10.43;6.80;;;;;;;20.21;46.08;101181.81;5071130;28;20499;-67
2021/06/22 08:30:14;;;;;;;7.77;5.27;;;;;;;20.22;46.18;101175.63;5060118;28;20428;-65
2021/06/22 08:32:40;;;;;;;6.73;5.10;;;;;;;20.14;46.32;101180.25;5059159;28;20186;-65
2021/06/22 08:35:06;;;;;;;8.10;5.23;;;;;;;20.31;46.20;101182.47;5040412;28;20234;-66
2021/06/22 08:37:31;;;;;;;9.10;4.50;;;;;;;20.03;46.47;101183.13;5039926;28;20170;-65
2021/06/22 08:39:56;;;;;;;8.00;4.87;;;;;;;21.81;42.27;101182.06;5040262;28;20257;-65
2021/06/22 08:42:23;;;;;;;10.10;7.37;;;;;;;22.16;42.96;101180.09;5039724;28;20513;-68
2021/06/22 08:44:50;;;;;;;7.63;5.33;;;;;;;21.37;43.22;101178.88;5041571;28;20190;-64
2021/06/22 08:47:21;;;;;;;11.37;5.90;;;;;;;21.04;43.60;101181.56;5055579;28;20440;-65
2021/06/22 08:49:48;;;;;;;10.93;5.37;;;;;;;21.31;43.27;101187.00;5058625;28;20710;-65
2021/06/22 08:52:14;;;;;;;6.93;5.37;;;;;;;21.73;42.32;101194.69;5059454;28;20766;-65
2021/06/22 08:54:39;;;;;;;5.40;4.57;;;;;;;21.94;41.53;101187.00;5045085;28;20518;-65
2021/06/22 08:57:05;;;;;;;8.73;5.40;;;;;;;21.90;41.85;101177.38;5039366;28;20195;-65
2021/06/22 08:59:30;;;;;;;5.97;4.50;;;;;;;22.24;39.89;101181.63;5043123;28;20216;-65
2021/06/22 09:01:55;;;;;;;8.67;5.00;;;;;;;21.87;40.19;101175.69;5040677;28;20190;-65
2021/06/22 09:04:21;;;;;;;5.97;4.40;;;;;;;23.31;37.64;101168.28;5043594;28;20507;-64
2021/06/22 09:06:46;;;;;;;8.90;4.37;;;;;;;21.99;38.54;101179.75;5053656;28;20250;-64
2021/06/22 09:09:11;;;;;;;9.23;5.20;;;;;;;21.87;40.05;101181.00;5051406;28;20192;-63
2021/06/22 09:11:38;;;;;;;8.50;4.53;;;;;;;21.23;41.46;101186.34;5034793;28;20189;-65
2021/06/22 09:14:06;;;;;;;8.20;4.77;;;;;;;20.75;42.56;101179.69;5039406;28;20178;-65
2021/06/22 09:16:33;;;;;;;9.47;5.40;;;;;;;20.71;42.51;101189.47;5047875;28;20521;-65
2021/06/22 09:19:04;;;;;;;10.00;4.80;;;;;;;20.67;42.41;101190.44;5053051;28;20472;-65
2021/06/22 09:21:32;;;;;;;7.80;4.93;;;;;;;20.63;43.32;101184.34;5048340;28;20482;-64
2021/06/22 09:23:57;;;;;;;7.90;4.70;;;;;;;21.25;42.05;101181.88;5042903;28;20460;-64
2021/06/22 09:26:25;;;;;;;6.73;4.50;;;;;;;21.70;41.72;101177.06;5051243;28;20446;-64
2021/06/22 09:28:52;;;;;;;6.90;4.90;;;;;;;22.29;40.62;101171.72;5040816;28;20271;-64
2021/06/22 09:31:20;;;;;;;6.60;5.20;;;;;;;22.79;39.27;101179.81;5037831;28;20564;-64
2021/06/22 09:33:52;;;;;;;8.17;4.30;;;;;;;23.83;38.03;101181.41;5038730;28;20637;-64
2021/06/22 09:36:26;;;;;;;7.80;4.43;;;;;;;23.79;37.17;101180.66;5053720;28;20484;-64
2021/06/22 09:38:58;;;;;;;7.80;4.43;;;;;;;23.88;38.13;101183.00;5049916;28;20471;-65
2021/06/22 09:41:37;;;;;;;6.43;4.40;;;;;;;22.23;40.14;101185.19;5058877;28;20408;-65
2021/06/22 09:44:08;;;;;;;7.63;5.07;;;;;;;22.49;38.41;101195.88;5043376;28;20463;-65
2021/06/22 09:46:39;;;;;;;7.77;4.50;;;;;;;21.23;41.11;101200.50;5038856;28;20760;-64
2021/06/22 09:49:06;;;;;;;5.07;4.20;;;;;;;21.47;41.44;101192.75;5046011;28;20479;-65
2021/06/22 09:51:39;;;;;;;9.23;4.20;;;;;;;21.43;41.56;101189.31;5049856;28;20440;-64
2021/06/22 09:54:09;;;;;;;9.13;4.47;;;;;;;21.52;42.19;101189.03;5055015;28;20440;-65
2021/06/22 09:56:34;;;;;;;8.80;4.60;;;;;;;21.87;41.91;101196.91;5037806;28;20448;-65
2021/06/22 09:59:06;;;;;;;6.93;4.77;;;;;;;23.09;39.23;101190.28;5041855;28;20475;-65
2021/06/22 10:01:36;;;;;;;5.40;4.60;;;;;;;22.81;39.70;101185.97;5038505;28;20193;-64
2021/06/22 10:04:32;;;;;;;8.10;5.10;;;;;;;23.14;38.89;101193.69;5054749;28;20443;-65
2021/06/22 10:06:59;;;;;;;7.93;4.67;;;;;;;22.50;39.73;101196.75;5041383;28;20455;-64
2021/06/22 10:09:32;;;;;;;6.90;5.07;;;;;;;22.71;39.45;101190.69;5044944;28;20450;-64
2021/06/22 10:11:57;;;;;;;6.30;4.87;;;;;;;21.90;40.69;101195.97;5050088;28;20451;-66
2021/06/22 10:14:33;;;;;;;5.90;5.00;;;;;;;21.75;40.19;101192.84;5041087;28;20421;-65
2021/06/22 10:17:00;;;;;;;6.63;4.47;;;;;;;21.90;40.91;101188.00;5053619;28;20542;-67
2021/06/22 10:19:26;;;;;;;7.33;4.90;;;;;;;21.31;41.54;101187.00;5042154;28;20550;-66
2021/06/22 10:21:53;;;;;;;7.90;4.20;;;;;;;21.76;42.46;101196.34;5046830;28;20479;-66
2021/06/22 10:24:18;;;;;;;9.17;5.10;;;;;;;22.04;40.99;101191.06;5058000;28;20469;-65
2021/06/22 10:26:45;;;;;;;7.20;4.23;;;;;;;22.64;40.63;101193.66;5055344;28;20455;-66
2021/06/22 10:29:10;;;;;;;6.60;4.40;;;;;;;22.47;41.42;101187.06;5058070;28;20177;-64
2021/06/22 10:31:36;;;;;;;9.17;5.10;;;;;;;22.79;41.88;101194.91;5050928;28;20457;-65
2021/06/22 10:34:01;;;;;;;7.80;5.60;;;;;;;23.33;40.07;101201.88;5038077;28;20205;-66
2021/06/22 10:36:30;;;;;;;7.30;6.13;;;;;;;23.77;38.77;101197.63;5038987;28;20618;-65
2021/06/22 10:38:58;;;;;;;10.60;5.03;;;;;;;22.63;38.48;101203.38;5037278;28;20202;-65
2021/06/22 10:41:24;;;;;;;9.07;4.73;;;;;;;23.28;37.10;101197.66;5037529;28;20423;-66
2021/06/22 10:43:50;;;;;;;7.73;4.37;;;;;;;24.93;34.54;101190.31;5049835;28;20444;-65
2021/06/22 10:46:17;;;;;;;6.40;4.87;;;;;;;25.07;34.78;101190.56;5037520;28;20420;-65
2021/06/22 10:48:52;;;;;;;7.93;4.50;;;;;;;26.07;34.14;101200.31;5041505;28;20216;-65
2021/06/22 10:51:28;;;;;;;7.60;4.13;;;;;;;25.87;34.06;101200.31;5037621;28;20428;-65
2021/06/22 10:53:54;;;;;;;5.13;3.83;;;;;;;25.26;34.56;101209.28;5048627;28;20440;-65
2021/06/22 10:56:23;;;;;;;8.33;4.60;;;;;;;24.05;36.76;101202.75;5044642;28;20451;-66
2021/06/22 10:59:15;;;;;;;5.63;3.97;;;;;;;24.05;37.00;101186.78;5044922;28;20496;-65
2021/06/22 11:01:56;;;;;;;7.83;4.47;;;;;;;23.14;39.52;101196.34;5052434;28;20676;-65
2021/06/22 11:04:24;;;;;;;7.70;4.80;;;;;;;23.34;38.90;101200.06;5042014;28;20453;-64
2021/06/22 11:07:00;;;;;;;8.17;4.93;;;;;;;22.81;39.56;101196.59;5038092;28;20468;-64
2021/06/22 11:09:26;;;;;;;9.13;4.53;;;;;;;22.93;38.95;101207.72;5043567;28;20440;-64
2021/06/22 11:12:21;;;;;;;6.73;5.10;;;;;;;22.58;39.21;101209.78;5057230;28;20658;-64
2021/06/22 11:15:02;;;;;;;8.37;4.50;;;;;;;22.65;39.10;101213.97;5044109;28;20182;-64
2021/06/22 11:17:47;;;;;;;7.53;5.27;;;;;;;23.20;38.61;101209.47;5044707;28;20435;-65
2021/06/22 11:20:15;;;;;;;7.33;4.80;;;;;;;22.90;37.98;101207.84;5030037;28;20433;-65
2021/06/22 11:23:00;;;;;;;5.80;4.50;;;;;;;22.84;39.11;101217.75;5036355;28;20440;-65